Terminal Aerodrome Forecast
Issued by NWS

Home | Current Version | Previous Version | Text Only | Print | Product List | Glossary On
Versions: 1 2 3 4 5 6 7 8 9 10 11 12 13 14 15 16
000
FTAK31 PAJN 231737
TAFAGY
TAF
PAGY 231737Z 2318/2418 03005KT P6SM VCSH SCT050 OVC100
     FM232200 02008KT P6SM -RA OVC040
     FM240500 23010KT P6SM -RA OVC040
     FM240800 21012G20KT P6SM VCSH BKN050
     FM241300 20012G20KT P6SM SKC
     FM241700 20006KT P6SM SKC
      AMD LTD TO CLD VIS AND WIND=

USA.gov is the U.S. government's official web portal to all federal, state and local government web resources and services.